sensor_id;sensor_type;location;lat;lon;timestamp;pressure;altitude;pressure_sealevel;temperature;humidity
7824;BME280;3957;48.61947800;9.05303100;2023-05-18T00:00:32;96646.38;;;3.09;100.00
7824;BME280;3957;48.61947800;9.05303100;2023-05-18T00:01:34;96648.78;;;3.12;100.00
7824;BME280;3957;48.61947800;9.05303100;2023-05-18T00:02:36;96653.22;;;3.12;100.00
7824;BME280;3957;48.61947800;9.05303100;2023-05-18T00:03:39;96653.91;;;3.14;100.00
7824;BME280;3957;48.61947800;9.05303100;2023-05-18T00:04:40;96652.78;;;3.16;100.00
7824;BME280;3957;48.61947800;9.05303100;2023-05-18T00:05:43;96642.34;;;3.15;100.00
7824;BME280;3957;48.61947800;9.05303100;2023-05-18T00:06:45;96647.50;;;3.16;100.00
7824;BME280;3957;48.61947800;9.05303100;2023-05-18T00:07:47;96646.38;;;3.19;100.00
7824;BME280;3957;48.61947800;9.05303100;2023-05-18T00:08:49;96648.19;;;3.18;100.00
7824;BME280;3957;48.61947800;9.05303100;2023-05-18T00:09:51;96645.38;;;3.20;100.00
7824;BME280;3957;48.61947800;9.05303100;2023-05-18T00:10:52;96641.78;;;3.21;100.00
7824;BME280;3957;48.61947800;9.05303100;2023-05-18T00:11:55;96645.38;;;3.20;100.00
7824;BME280;3957;48.61947800;9.05303100;2023-05-18T00:12:57;96635.38;;;3.23;100.00
7824;BME280;3957;48.61947800;9.05303100;2023-05-18T00:13:58;96636.19;;;3.24;100.00
7824;BME280;3957;48.61947800;9.05303100;2023-05-18T00:15:00;96628.53;;;3.31;100.00
7824;BME280;3957;48.61947800;9.05303100;2023-05-18T00:16:02;96638.44;;;3.29;100.00
7824;BME280;3957;48.61947800;9.05303100;2023-05-18T00:17:04;96628.25;;;3.24;100.00
7824;BME280;3957;48.61947800;9.05303100;2023-05-18T00:18:05;96628.38;;;3.32;100.00
7824;BME280;3957;48.61947800;9.05303100;2023-05-18T00:19:07;96623.50;;;3.37;100.00
7824;BME280;3957;48.61947800;9.05303100;2023-05-18T00:20:09;96632.69;;;3.33;100.00
7824;BME280;3957;48.61947800;9.05303100;2023-05-18T00:21:11;96630.88;;;3.34;100.00
7824;BME280;3957;48.61947800;9.05303100;2023-05-18T00:22:13;96629.63;;;3.28;100.00
7824;BME280;3957;48.61947800;9.05303100;2023-05-18T00:23:21;96629.97;;;3.15;100.00
7824;BME280;3957;48.61947800;9.05303100;2023-05-18T00:24:25;96623.72;;;3.06;100.00
7824;BME280;3957;48.61947800;9.05303100;2023-05-18T00:25:26;96630.00;;;3.05;100.00
7824;BME280;3957;48.61947800;9.05303100;2023-05-18T00:26:28;96631.13;;;3.03;100.00
7824;BME280;3957;48.61947800;9.05303100;2023-05-18T00:27:30;96623.03;;;3.04;100.00
7824;BME280;3957;48.61947800;9.05303100;2023-05-18T00:28:33;96627.91;;;2.99;100.00
7824;BME280;3957;48.61947800;9.05303100;2023-05-18T00:29:34;96625.97;;;3.01;100.00
7824;BME280;3957;48.61947800;9.05303100;2023-05-18T00:30:36;96624.97;;;3.02;100.00
7824;BME280;3957;48.61947800;9.05303100;2023-05-18T00:31:38;96626.00;;;2.92;100.00
7824;BME280;3957;48.61947800;9.05303100;2023-05-18T00:32:40;96626.03;;;2.82;100.00
7824;BME280;3957;48.61947800;9.05303100;2023-05-18T00:33:42;96628.53;;;2.74;100.00
7824;BME280;3957;48.61947800;9.05303100;2023-05-18T00:34:46;96626.00;;;2.72;100.00
7824;BME280;3957;48.61947800;9.05303100;2023-05-18T00:35:47;96632.69;;;2.66;100.00
7824;BME280;3957;48.61947800;9.05303100;2023-05-18T00:36:49;96628.56;;;2.64;100.00
7824;BME280;3957;48.61947800;9.05303100;2023-05-18T00:37:51;96628.28;;;2.57;100.00
7824;BME280;3957;48.61947800;9.05303100;2023-05-18T00:38:52;96624.09;;;2.54;100.00
7824;BME280;3957;48.61947800;9.05303100;2023-05-18T00:39:54;96622.13;;;2.57;100.00
7824;BME280;3957;48.61947800;9.05303100;2023-05-18T00:40:55;96627.03;;;2.61;100.00
7824;BME280;3957;48.61947800;9.05303100;2023-05-18T00:41:57;96624.22;;;2.63;100.00
7824;BME280;3957;48.61947800;9.05303100;2023-05-18T00:42:58;96619.91;;;2.62;100.00
7824;BME280;3957;48.61947800;9.05303100;2023-05-18T00:44:01;96627.41;;;2.57;100.00
7824;BME280;3957;48.61947800;9.05303100;2023-05-18T00:45:03;96629.25;;;2.56;100.00
7824;BME280;3957;48.61947800;9.05303100;2023-05-18T00:46:04;96619.63;;;2.55;100.00
7824;BME280;3957;48.61947800;9.05303100;2023-05-18T00:47:07;96622.13;;;2.57;100.00
7824;BME280;3957;48.61947800;9.05303100;2023-05-18T00:48:09;96622.84;;;2.59;100.00
7824;BME280;3957;48.61947800;9.05303100;2023-05-18T00:49:11;96624.78;;;2.66;100.00
7824;BME280;3957;48.61947800;9.05303100;2023-05-18T00:50:13;96627.84;;;2.62;100.00
7824;BME280;3957;48.61947800;9.05303100;2023-05-18T00:51:16;96625.06;;;2.63;100.00
7824;BME280;3957;48.61947800;9.05303100;2023-05-18T00:52:18;96620.63;;;2.64;100.00
7824;BME280;3957;48.61947800;9.05303100;2023-05-18T00:53:21;96628.13;;;2.59;100.00
7824;BME280;3957;48.61947800;9.05303100;2023-05-18T00:54:23;96621.19;;;2.58;100.00
7824;BME280;3957;48.61947800;9.05303100;2023-05-18T00:55:26;96620.88;;;2.61;100.00
7824;BME280;3957;48.61947800;9.05303100;2023-05-18T00:56:29;96619.09;;;2.61;100.00
7824;BME280;3957;48.61947800;9.05303100;2023-05-18T00:57:34;96618.25;;;2.61;100.00
7824;BME280;3957;48.61947800;9.05303100;2023-05-18T00:58:40;96628.81;;;2.61;100.00
7824;BME280;3957;48.61947800;9.05303100;2023-05-18T00:59:42;96620.34;;;2.57;100.00
7824;BME280;3957;48.61947800;9.05303100;2023-05-18T01:00:44;96620.88;;;2.61;100.00
7824;BME280;3957;48.61947800;9.05303100;2023-05-18T01:01:46;96620.06;;;2.60;100.00
7824;BME280;3957;48.61947800;9.05303100;2023-05-18T01:02:48;96615.06;;;2.57;100.00
7824;BME280;3957;48.61947800;9.05303100;2023-05-18T01:03:51;96611.84;;;2.53;100.00
7824;BME280;3957;48.61947800;9.05303100;2023-05-18T01:04:56;96616.31;;;2.53;100.00
7824;BME280;3957;48.61947800;9.05303100;2023-05-18T01:05:58;96621.31;;;2.46;100.00
7824;BME280;3957;48.61947800;9.05303100;2023-05-18T01:07:00;96606.59;;;2.44;100.00
7824;BME280;3957;48.61947800;9.05303100;2023-05-18T01:08:07;96614.38;;;2.45;100.00
7824;BME280;3957;48.61947800;9.05303100;2023-05-18T01:09:10;96614.66;;;2.42;100.00
7824;BME280;3957;48.61947800;9.05303100;2023-05-18T01:10:14;96610.19;;;2.43;100.00
7824;BME280;3957;48.61947800;9.05303100;2023-05-18T01:11:23;96607.56;;;2.43;100.00
7824;BME280;3957;48.61947800;9.05303100;2023-05-18T01:12:36;96612.31;;;2.39;100.00
7824;BME280;3957;48.61947800;9.05303100;2023-05-18T01:13:54;96615.06;;;2.37;100.00
7824;BME280;3957;48.61947800;9.05303100;2023-05-18T01:15:06;96617.59;;;2.39;100.00
7824;BME280;3957;48.61947800;9.05303100;2023-05-18T01:16:15;96613.28;;;2.38;100.00
7824;BME280;3957;48.61947800;9.05303100;2023-05-18T01:18:55;96618.25;;;2.41;100.00
7824;BME280;3957;48.61947800;9.05303100;2023-05-18T01:21:58;96618.41;;;2.40;100.00
7824;BME280;3957;48.61947800;9.05303100;2023-05-18T01:23:25;96612.16;;;2.41;100.00
7824;BME280;3957;48.61947800;9.05303100;2023-05-18T01:24:37;96607.69;;;2.41;100.00
7824;BME280;3957;48.61947800;9.05303100;2023-05-18T01:25:59;96613.41;;;2.36;100.00
7824;BME280;3957;48.61947800;9.05303100;2023-05-18T01:27:04;96603.94;;;2.34;100.00
7824;BME280;3957;48.61947800;9.05303100;2023-05-18T01:28:16;96610.47;;;2.30;100.00
7824;BME280;3957;48.61947800;9.05303100;2023-05-18T01:29:20;96607.13;;;2.28;100.00
7824;BME280;3957;48.61947800;9.05303100;2023-05-18T01:30:22;96610.06;;;2.25;100.00
7824;BME280;3957;48.61947800;9.05303100;2023-05-18T01:31:24;96603.66;;;2.27;100.00
7824;BME280;3957;48.61947800;9.05303100;2023-05-18T01:32:26;96604.78;;;2.25;100.00
7824;BME280;3957;48.61947800;9.05303100;2023-05-18T01:33:27;96611.03;;;2.24;100.00
7824;BME280;3957;48.61947800;9.05303100;2023-05-18T01:34:29;96611.44;;;2.29;100.00
7824;BME280;3957;48.61947800;9.05303100;2023-05-18T01:35:33;96607.03;;;2.29;100.00
7824;BME280;3957;48.61947800;9.05303100;2023-05-18T01:36:34;96614.22;;;2.27;100.00
7824;BME280;3957;48.61947800;9.05303100;2023-05-18T01:37:36;96603.00;;;2.25;100.00
7824;BME280;3957;48.61947800;9.05303100;2023-05-18T01:38:38;96608.66;;;2.20;100.00
7824;BME280;3957;48.61947800;9.05303100;2023-05-18T01:39:44;96606.88;;;2.21;100.00
7824;BME280;3957;48.61947800;9.05303100;2023-05-18T01:42:15;96604.34;;;2.19;100.00
7824;BME280;3957;48.61947800;9.05303100;2023-05-18T01:43:22;96609.53;;;2.21;100.00
7824;BME280;3957;48.61947800;9.05303100;2023-05-18T01:44:34;96607.84;;;2.20;100.00
7824;BME280;3957;48.61947800;9.05303100;2023-05-18T01:45:40;96609.38;;;2.23;100.00
7824;BME280;3957;48.61947800;9.05303100;2023-05-18T01:48:01;96605.59;;;2.15;100.00
7824;BME280;3957;48.61947800;9.05303100;2023-05-18T01:49:10;96610.88;;;2.15;100.00
7824;BME280;3957;48.61947800;9.05303100;2023-05-18T01:50:16;96607.41;;;2.15;100.00
7824;BME280;3957;48.61947800;9.05303100;2023-05-18T01:51:20;96605.06;;;2.12;100.00
7824;BME280;3957;48.61947800;9.05303100;2023-05-18T01:53:46;96600.47;;;2.14;100.00
7824;BME280;3957;48.61947800;9.05303100;2023-05-18T01:54:54;96604.22;;;2.11;100.00
7824;BME280;3957;48.61947800;9.05303100;2023-05-18T01:55:57;96598.09;;;2.11;100.00
7824;BME280;3957;48.61947800;9.05303100;2023-05-18T01:57:00;96607.69;;;2.12;100.00
7824;BME280;3957;48.61947800;9.05303100;2023-05-18T01:58:04;96598.69;;;2.14;100.00
7824;BME280;3957;48.61947800;9.05303100;2023-05-18T01:59:08;96595.31;;;2.12;100.00
7824;BME280;3957;48.61947800;9.05303100;2023-05-18T02:00:11;96604.34;;;2.10;100.00
7824;BME280;3957;48.61947800;9.05303100;2023-05-18T02:01:16;96595.75;;;2.08;100.00
7824;BME280;3957;48.61947800;9.05303100;2023-05-18T02:02:20;96601.03;;;2.08;100.00
7824;BME280;3957;48.61947800;9.05303100;2023-05-18T02:03:22;96602.56;;;2.00;100.00
7824;BME280;3957;48.61947800;9.05303100;2023-05-18T02:04:23;96601.16;;;1.96;100.00
7824;BME280;3957;48.61947800;9.05303100;2023-05-18T02:05:25;96603.94;;;1.95;100.00
7824;BME280;3957;48.61947800;9.05303100;2023-05-18T02:06:27;96603.25;;;1.93;100.00
7824;BME280;3957;48.61947800;9.05303100;2023-05-18T02:07:29;96597.38;;;1.89;100.00
7824;BME280;3957;48.61947800;9.05303100;2023-05-18T02:08:30;96595.75;;;1.88;100.00
7824;BME280;3957;48.61947800;9.05303100;2023-05-18T02:09:32;96595.47;;;1.91;100.00
7824;BME280;3957;48.61947800;9.05303100;2023-05-18T02:10:34;96598.38;;;1.88;100.00
7824;BME280;3957;48.61947800;9.05303100;2023-05-18T02:11:36;96596.00;;;1.85;100.00
7824;BME280;3957;48.61947800;9.05303100;2023-05-18T02:12:37;96599.75;;;1.82;100.00
7824;BME280;3957;48.61947800;9.05303100;2023-05-18T02:13:39;96599.19;;;1.79;100.00
7824;BME280;3957;48.61947800;9.05303100;2023-05-18T02:14:41;96593.09;;;1.78;100.00
7824;BME280;3957;48.61947800;9.05303100;2023-05-18T02:15:43;96590.31;;;1.80;100.00
7824;BME280;3957;48.61947800;9.05303100;2023-05-18T02:16:46;96598.78;;;1.83;100.00
7824;BME280;3957;48.61947800;9.05303100;2023-05-18T02:17:54;96596.84;;;1.85;100.00
7824;BME280;3957;48.61947800;9.05303100;2023-05-18T02:18:58;96597.50;;;1.78;100.00
7824;BME280;3957;48.61947800;9.05303100;2023-05-18T02:20:00;96595.16;;;1.75;100.00
7824;BME280;3957;48.61947800;9.05303100;2023-05-18T02:21:02;96602.50;;;1.71;100.00
7824;BME280;3957;48.61947800;9.05303100;2023-05-18T02:22:06;96596.69;;;1.67;100.00
7824;BME280;3957;48.61947800;9.05303100;2023-05-18T02:23:09;96589.84;;;1.65;100.00
7824;BME280;3957;48.61947800;9.05303100;2023-05-18T02:24:11;96599.16;;;1.69;100.00
7824;BME280;3957;48.61947800;9.05303100;2023-05-18T02:25:14;96598.59;;;1.65;100.00
7824;BME280;3957;48.61947800;9.05303100;2023-05-18T02:26:17;96597.91;;;1.63;100.00
7824;BME280;3957;48.61947800;9.05303100;2023-05-18T02:27:23;96596.94;;;1.64;100.00
7824;BME280;3957;48.61947800;9.05303100;2023-05-18T02:28:25;96593.75;;;1.61;100.00
7824;BME280;3957;48.61947800;9.05303100;2023-05-18T02:29:27;96591.25;;;1.59;100.00
7824;BME280;3957;48.61947800;9.05303100;2023-05-18T02:30:29;96595.41;;;1.62;100.00
7824;BME280;3957;48.61947800;9.05303100;2023-05-18T02:31:33;96585.00;;;1.60;100.00
7824;BME280;3957;48.61947800;9.05303100;2023-05-18T02:32:36;96587.88;;;1.57;100.00
7824;BME280;3957;48.61947800;9.05303100;2023-05-18T02:33:43;96587.06;;;1.57;100.00
7824;BME280;3957;48.61947800;9.05303100;2023-05-18T02:34:45;96580.13;;;1.56;100.00
7824;BME280;3957;48.61947800;9.05303100;2023-05-18T02:35:46;96586.50;;;1.53;100.00
7824;BME280;3957;48.61947800;9.05303100;2023-05-18T02:36:48;96584.00;;;1.51;100.00
7824;BME280;3957;48.61947800;9.05303100;2023-05-18T02:37:51;96588.31;;;1.52;100.00
7824;BME280;3957;48.61947800;9.05303100;2023-05-18T02:38:54;96578.44;;;1.55;100.00
7824;BME280;3957;48.61947800;9.05303100;2023-05-18T02:39:57;96592.06;;;1.60;100.00
7824;BME280;3957;48.61947800;9.05303100;2023-05-18T02:40:59;96581.22;;;1.63;100.00
7824;BME280;3957;48.61947800;9.05303100;2023-05-18T02:42:00;96581.94;;;1.65;100.00
7824;BME280;3957;48.61947800;9.05303100;2023-05-18T02:43:02;96576.94;;;1.62;100.00
7824;BME280;3957;48.61947800;9.05303100;2023-05-18T02:44:04;96579.44;;;1.63;100.00
7824;BME280;3957;48.61947800;9.05303100;2023-05-18T02:45:07;96582.50;;;1.68;100.00
7824;BME280;3957;48.61947800;9.05303100;2023-05-18T02:46:09;96579.31;;;1.65;100.00
7824;BME280;3957;48.61947800;9.05303100;2023-05-18T02:47:11;96576.66;;;1.65;100.00
7824;BME280;3957;48.61947800;9.05303100;2023-05-18T02:48:13;96579.44;;;1.63;100.00
7824;BME280;3957;48.61947800;9.05303100;2023-05-18T02:49:15;96577.94;;;1.70;100.00
7824;BME280;3957;48.61947800;9.05303100;2023-05-18T02:50:16;96577.34;;;1.67;100.00
7824;BME280;3957;48.61947800;9.05303100;2023-05-18T02:51:19;96576.94;;;1.62;100.00
7824;BME280;3957;48.61947800;9.05303100;2023-05-18T02:52:22;96576.50;;;1.57;100.00
7824;BME280;3957;48.61947800;9.05303100;2023-05-18T02:53:24;96585.09;;;1.59;100.00
7824;BME280;3957;48.61947800;9.05303100;2023-05-18T02:54:32;96577.19;;;1.59;100.00
7824;BME280;3957;48.61947800;9.05303100;2023-05-18T02:55:34;96575.81;;;1.55;100.00
7824;BME280;3957;48.61947800;9.05303100;2023-05-18T02:56:43;96576.78;;;1.53;100.00
7824;BME280;3957;48.61947800;9.05303100;2023-05-18T02:57:56;96576.22;;;1.50;100.00
7824;BME280;3957;48.61947800;9.05303100;2023-05-18T02:59:15;96573.16;;;1.55;100.00
7824;BME280;3957;48.61947800;9.05303100;2023-05-18T03:00:18;96569.97;;;1.51;100.00
7824;BME280;3957;48.61947800;9.05303100;2023-05-18T03:01:20;96577.31;;;1.47;100.00
7824;BME280;3957;48.61947800;9.05303100;2023-05-18T03:02:25;96576.50;;;1.47;100.00
7824;BME280;3957;48.61947800;9.05303100;2023-05-18T03:03:28;96579.69;;;1.50;100.00
7824;BME280;3957;48.61947800;9.05303100;2023-05-18T03:04:30;96573.72;;;1.48;100.00
7824;BME280;3957;48.61947800;9.05303100;2023-05-18T03:05:32;96573.13;;;1.45;100.00
7824;BME280;3957;48.61947800;9.05303100;2023-05-18T03:06:34;96572.47;;;1.43;100.00
7824;BME280;3957;48.61947800;9.05303100;2023-05-18T03:07:36;96569.81;;;1.43;100.00
7824;BME280;3957;48.61947800;9.05303100;2023-05-18T03:08:38;96574.38;;;1.41;100.00
7824;BME280;3957;48.61947800;9.05303100;2023-05-18T03:09:43;96572.31;;;1.44;100.00
7824;BME280;3957;48.61947800;9.05303100;2023-05-18T03:10:44;96567.03;;;1.44;100.00
7824;BME280;3957;48.61947800;9.05303100;2023-05-18T03:11:47;96573.59;;;1.50;100.00
7824;BME280;3957;48.61947800;9.05303100;2023-05-18T03:12:49;96572.31;;;1.44;100.00
7824;BME280;3957;48.61947800;9.05303100;2023-05-18T03:13:51;96573.41;;;1.42;100.00
7824;BME280;3957;48.61947800;9.05303100;2023-05-18T03:14:53;96574.97;;;1.44;100.00
7824;BME280;3957;48.61947800;9.05303100;2023-05-18T03:15:54;96571.50;;;1.44;100.00
7824;BME280;3957;48.61947800;9.05303100;2023-05-18T03:16:57;96570.91;;;1.40;100.00
7824;BME280;3957;48.61947800;9.05303100;2023-05-18T03:17:58;96571.75;;;1.41;100.00
7824;BME280;3957;48.61947800;9.05303100;2023-05-18T03:19:00;96570.38;;;1.46;100.00
7824;BME280;3957;48.61947800;9.05303100;2023-05-18T03:20:09;96571.59;;;1.42;100.00
7824;BME280;3957;48.61947800;9.05303100;2023-05-18T03:21:15;96569.81;;;1.43;100.00
7824;BME280;3957;48.61947800;9.05303100;2023-05-18T03:22:18;96575.78;;;1.45;100.00
7824;BME280;3957;48.61947800;9.05303100;2023-05-18T03:23:20;96568.84;;;1.44;100.00
7824;BME280;3957;48.61947800;9.05303100;2023-05-18T03:24:23;96567.72;;;1.46;100.00
7824;BME280;3957;48.61947800;9.05303100;2023-05-18T03:25:26;96566.75;;;1.47;100.00
7824;BME280;3957;48.61947800;9.05303100;2023-05-18T03:26:28;96567.72;;;1.46;100.00
7824;BME280;3957;48.61947800;9.05303100;2023-05-18T03:27:33;96573.72;;;1.48;100.00
7824;BME280;3957;48.61947800;9.05303100;2023-05-18T03:28:37;96565.94;;;1.47;100.00
7824;BME280;3957;48.61947800;9.05303100;2023-05-18T03:29:38;96573.59;;;1.50;100.00
7824;BME280;3957;48.61947800;9.05303100;2023-05-18T03:30:41;96567.72;;;1.46;100.00
7824;BME280;3957;48.61947800;9.05303100;2023-05-18T03:31:43;96568.00;;;1.43;100.00
7824;BME280;3957;48.61947800;9.05303100;2023-05-18T03:32:46;96565.50;;;1.42;100.00
7824;BME280;3957;48.61947800;9.05303100;2023-05-18T03:33:49;96573.41;;;1.42;100.00
7824;BME280;3957;48.61947800;9.05303100;2023-05-18T03:34:51;96572.72;;;1.40;100.00
7824;BME280;3957;48.61947800;9.05303100;2023-05-18T03:35:54;96569.97;;;1.41;100.00
7824;BME280;3957;48.61947800;9.05303100;2023-05-18T03:36:56;96573.41;;;1.42;100.00
7824;BME280;3957;48.61947800;9.05303100;2023-05-18T03:37:58;96572.84;;;1.38;100.00
7824;BME280;3957;48.61947800;9.05303100;2023-05-18T03:39:00;96574.94;;;1.34;100.00
7824;BME280;3957;48.61947800;9.05303100;2023-05-18T03:40:13;96581.03;;;1.35;100.00
7824;BME280;3957;48.61947800;9.05303100;2023-05-18T03:41:17;96575.88;;;1.33;100.00
7824;BME280;3957;48.61947800;9.05303100;2023-05-18T03:42:18;96570.34;;;1.36;100.00
7824;BME280;3957;48.61947800;9.05303100;2023-05-18T03:43:20;96578.00;;;1.40;100.00
7824;BME280;3957;48.61947800;9.05303100;2023-05-18T03:44:21;96576.19;;;1.40;100.00
7824;BME280;3957;48.61947800;9.05303100;2023-05-18T03:45:23;96574.66;;;1.38;100.00
7824;BME280;3957;48.61947800;9.05303100;2023-05-18T03:46:25;96569.41;;;1.47;100.00
7824;BME280;3957;48.61947800;9.05303100;2023-05-18T03:47:27;96577.03;;;1.50;100.00
7824;BME280;3957;48.61947800;9.05303100;2023-05-18T03:48:30;96573.72;;;1.48;100.00
7824;BME280;3957;48.61947800;9.05303100;2023-05-18T03:49:33;96574.69;;;1.47;100.00
7824;BME280;3957;48.61947800;9.05303100;2023-05-18T03:50:35;96578.03;;;1.49;100.00
7824;BME280;3957;48.61947800;9.05303100;2023-05-18T03:51:37;96579.44;;;1.53;100.00
7824;BME280;3957;48.61947800;9.05303100;2023-05-18T03:52:39;96576.78;;;1.53;100.00
7824;BME280;3957;48.61947800;9.05303100;2023-05-18T03:53:41;96576.66;;;1.55;100.00
7824;BME280;3957;48.61947800;9.05303100;2023-05-18T03:54:43;96585.66;;;1.52;100.00
7824;BME280;3957;48.61947800;9.05303100;2023-05-18T03:55:46;96582.22;;;1.52;100.00
7824;BME280;3957;48.61947800;9.05303100;2023-05-18T03:56:49;96585.97;;;1.59;100.00
7824;BME280;3957;48.61947800;9.05303100;2023-05-18T03:57:51;96590.38;;;1.59;100.00
7824;BME280;3957;48.61947800;9.05303100;2023-05-18T03:58:55;96581.50;;;1.60;100.00
7824;BME280;3957;48.61947800;9.05303100;2023-05-18T03:59:59;96583.06;;;1.62;100.00
7824;BME280;3957;48.61947800;9.05303100;2023-05-18T04:01:01;96586.41;;;1.64;100.00
7824;BME280;3957;48.61947800;9.05303100;2023-05-18T04:02:02;96588.03;;;1.65;100.00
7824;BME280;3957;48.61947800;9.05303100;2023-05-18T04:03:04;96586.25;;;1.66;100.00
7824;BME280;3957;48.61947800;9.05303100;2023-05-18T04:04:09;96591.13;;;1.70;100.00
7824;BME280;3957;48.61947800;9.05303100;2023-05-18T04:05:18;96589.16;;;1.73;100.00
7824;BME280;3957;48.61947800;9.05303100;2023-05-18T04:06:21;96586.53;;;1.73;100.00
7824;BME280;3957;48.61947800;9.05303100;2023-05-18T04:07:24;96593.34;;;1.75;100.00
7824;BME280;3957;48.61947800;9.05303100;2023-05-18T04:08:27;96594.06;;;1.77;100.00
7824;BME280;3957;48.61947800;9.05303100;2023-05-18T04:09:32;96591.28;;;1.79;100.00
7824;BME280;3957;48.61947800;9.05303100;2023-05-18T04:10:34;96591.00;;;1.82;100.00
7824;BME280;3957;48.61947800;9.05303100;2023-05-18T04:11:35;96602.81;;;1.87;100.00
7824;BME280;3957;48.61947800;9.05303100;2023-05-18T04:12:37;96596.13;;;1.93;100.00
7824;BME280;3957;48.61947800;9.05303100;2023-05-18T04:13:39;96598.38;;;1.98;100.00
7824;BME280;3957;48.61947800;9.05303100;2023-05-18T04:14:42;96588.50;;;2.00;100.00
7824;BME280;3957;48.61947800;9.05303100;2023-05-18T04:15:43;96597.97;;;2.02;100.00
7824;BME280;3957;48.61947800;9.05303100;2023-05-18T04:16:46;96593.41;;;2.04;100.00
7824;BME280;3957;48.61947800;9.05303100;2023-05-18T04:17:50;96594.66;;;2.10;100.00
7824;BME280;3957;48.61947800;9.05303100;2023-05-18T04:18:52;96594.22;;;2.15;100.00
7824;BME280;3957;48.61947800;9.05303100;2023-05-18T04:19:54;96586.72;;;2.20;100.00
7824;BME280;3957;48.61947800;9.05303100;2023-05-18T04:20:56;96596.84;;;2.25;100.00
7824;BME280;3957;48.61947800;9.05303100;2023-05-18T04:21:58;96604.50;;;2.28;100.00
7824;BME280;3957;48.61947800;9.05303100;2023-05-18T04:23:00;96599.22;;;2.28;100.00
7824;BME280;3957;48.61947800;9.05303100;2023-05-18T04:24:02;96600.47;;;2.33;100.00
7824;BME280;3957;48.61947800;9.05303100;2023-05-18T04:25:08;96608.81;;;2.38;100.00
7824;BME280;3957;48.61947800;9.05303100;2023-05-18T04:26:12;96602.28;;;2.43;100.00
7824;BME280;3957;48.61947800;9.05303100;2023-05-18T04:27:14;96607.00;;;2.49;100.00
7824;BME280;3957;48.61947800;9.05303100;2023-05-18T04:28:15;96598.22;;;2.58;100.00
7824;BME280;3957;48.61947800;9.05303100;2023-05-18T04:29:17;96599.50;;;2.64;100.00
7824;BME280;3957;48.61947800;9.05303100;2023-05-18T04:30:19;96602.25;;;2.82;100.00
7824;BME280;3957;48.61947800;9.05303100;2023-05-18T04:31:25;96602.72;;;3.05;100.00
7824;BME280;3957;48.61947800;9.05303100;2023-05-18T04:32:28;96603.53;;;3.43;100.00
7824;BME280;3957;48.61947800;9.05303100;2023-05-18T04:33:31;96602.31;;;3.65;100.00
7824;BME280;3957;48.61947800;9.05303100;2023-05-18T04:34:34;96617.88;;;4.14;100.00
7824;BME280;3957;48.61947800;9.05303100;2023-05-18T04:35:38;96613.53;;;4.41;100.00
7824;BME280;3957;48.61947800;9.05303100;2023-05-18T04:36:39;96609.59;;;4.89;100.00
7824;BME280;3957;48.61947800;9.05303100;2023-05-18T04:37:43;96609.53;;;5.34;100.00
7824;BME280;3957;48.61947800;9.05303100;2023-05-18T04:38:48;96612.72;;;5.80;100.00
7824;BME280;3957;48.61947800;9.05303100;2023-05-18T04:39:51;96604.50;;;6.00;100.00
7824;BME280;3957;48.61947800;9.05303100;2023-05-18T04:40:54;96605.22;;;6.26;100.00
7824;BME280;3957;48.61947800;9.05303100;2023-05-18T04:41:57;96601.91;;;6.66;100.00
7824;BME280;3957;48.61947800;9.05303100;2023-05-18T04:43:00;96598.09;;;6.85;100.00
7824;BME280;3957;48.61947800;9.05303100;2023-05-18T04:44:04;96606.72;;;7.11;100.00
7824;BME280;3957;48.61947800;9.05303100;2023-05-18T04:45:06;96598.34;;;7.31;100.00
7824;BME280;3957;48.61947800;9.05303100;2023-05-18T04:46:08;96600.69;;;7.74;100.00
7824;BME280;3957;48.61947800;9.05303100;2023-05-18T04:47:10;96605.72;;;8.00;100.00
7824;BME280;3957;48.61947800;9.05303100;2023-05-18T04:48:12;96608.91;;;8.27;100.00
7824;BME280;3957;48.61947800;9.05303100;2023-05-18T04:49:14;96610.56;;;8.59;100.00
7824;BME280;3957;48.61947800;9.05303100;2023-05-18T04:50:16;96600.00;;;9.04;100.00
7824;BME280;3957;48.61947800;9.05303100;2023-05-18T04:51:18;96605.16;;;9.06;100.00
7824;BME280;3957;48.61947800;9.05303100;2023-05-18T04:52:23;96603.06;;;9.16;99.57
7824;BME280;3957;48.61947800;9.05303100;2023-05-18T04:53:25;96602.88;;;9.62;96.13
7824;BME280;3957;48.61947800;9.05303100;2023-05-18T04:54:28;96601.84;;;10.08;90.00
7824;BME280;3957;48.61947800;9.05303100;2023-05-18T04:55:33;96603.16;;;10.19;88.37
7824;BME280;3957;48.61947800;9.05303100;2023-05-18T04:56:43;96595.81;;;10.21;86.39
7824;BME280;3957;48.61947800;9.05303100;2023-05-18T04:57:48;96602.41;;;10.40;85.45
7824;BME280;3957;48.61947800;9.05303100;2023-05-18T04:58:50;96603.88;;;10.64;83.81
7824;BME280;3957;48.61947800;9.05303100;2023-05-18T04:59:52;96601.84;;;10.66;81.22
7824;BME280;3957;48.61947800;9.05303100;2023-05-18T05:00:55;96602.16;;;11.35;79.56
7824;BME280;3957;48.61947800;9.05303100;2023-05-18T05:01:57;96607.88;;;11.25;77.91
7824;BME280;3957;48.61947800;9.05303100;2023-05-18T05:03:00;96609.69;;;11.18;77.83
7824;BME280;3957;48.61947800;9.05303100;2023-05-18T05:04:02;96598.63;;;11.56;77.10
7824;BME280;3957;48.61947800;9.05303100;2023-05-18T05:05:04;96605.06;;;11.68;73.85
7824;BME280;3957;48.61947800;9.05303100;2023-05-18T05:06:06;96607.81;;;12.30;70.75
7824;BME280;3957;48.61947800;9.05303100;2023-05-18T05:07:08;96603.91;;;11.84;71.17
7824;BME280;3957;48.61947800;9.05303100;2023-05-18T05:08:10;96611.00;;;11.64;74.30
7824;BME280;3957;48.61947800;9.05303100;2023-05-18T05:09:13;96612.97;;;12.18;69.97
7824;BME280;3957;48.61947800;9.05303100;2023-05-18T05:10:15;96609.16;;;12.74;69.40